Equality, Alabama
Current Conditions -  °F | °C
As of 8:35 AM on Monday 26 Jan 2015 (Local Time) from KALX Reporting Station
Overcast Overcast  
Wind Chill:   Ceiling: 2100
Heat Index:   Visibility: 10mi
Dew Point:   Wind: 9mph
Humidity: 71%   Direction: 280°W
Pressure: 29.94"   Gusts: 16mph
Location:  32.76°N, 86.1°W
Report Text: KALX 261435Z AUTO 28008G14KT 10SM OVC021 08/03 A2994 RMK AO2 T00810032
Loading
Personal Weather Stations






























Interactive Weather Map New forecast layout! Learn more

10-Day Weather Forecast

Advertisements
Track Severe Weather on mobile